createdAt,value
2019-04-01T00:04:00.355Z,6.56
2019-04-01T00:08:05.243Z,6.40
2019-04-01T00:12:10.135Z,6.13
2019-04-01T00:16:15.032Z,5.96
2019-04-01T00:20:19.944Z,5.92
2019-04-01T00:24:24.832Z,5.95
2019-04-01T00:28:29.733Z,5.94
2019-04-01T00:32:34.633Z,5.94
2019-04-01T00:36:40.501Z,5.94
2019-04-01T00:40:45.399Z,5.92
2019-04-01T00:44:50.293Z,5.67
2019-04-01T00:48:55.197Z,5.49
2019-04-01T00:53:00.091Z,5.41
2019-04-01T00:57:05.011Z,5.50
2019-04-01T01:01:10.401Z,5.39
2019-04-01T01:05:15.297Z,5.19
2019-04-01T01:09:20.200Z,5.18
2019-04-01T01:13:25.097Z,5.18
2019-04-01T01:17:29.997Z,5.21
2019-04-01T01:21:35.266Z,5.17
2019-04-01T01:25:40.150Z,5.05
2019-04-01T01:29:45.053Z,5.05
2019-04-01T01:33:50.927Z,5.00
2019-04-01T01:37:55.825Z,4.94
2019-04-01T01:42:00.718Z,4.86
2019-04-01T01:46:05.622Z,4.75
2019-04-01T01:50:10.512Z,4.71
2019-04-01T01:54:15.410Z,4.64
2019-04-01T01:58:20.307Z,4.52
2019-04-01T02:02:25.205Z,4.46
2019-04-01T02:06:30.124Z,4.45
2019-04-01T02:10:35.011Z,4.44
2019-04-01T02:14:39.910Z,4.41
2019-04-01T02:18:44.814Z,4.57
2019-04-01T02:22:49.721Z,4.85
2019-04-01T02:26:54.617Z,4.90
2019-04-01T02:30:59.507Z,4.78
2019-04-01T02:35:05.441Z,4.72
2019-04-01T02:39:10.343Z,4.67
2019-04-01T02:43:15.251Z,4.72
2019-04-01T02:47:20.219Z,4.68
2019-04-01T02:51:25.107Z,4.69
2019-04-01T02:55:30.018Z,4.67
2019-04-01T02:59:34.926Z,4.45
2019-04-01T03:03:39.793Z,4.33
2019-04-01T03:07:44.751Z,4.32
2019-04-01T03:11:49.628Z,4.35
2019-04-01T03:15:54.523Z,4.25
2019-04-01T03:19:59.425Z,4.05
2019-04-01T03:24:04.325Z,3.91
2019-04-01T03:28:09.295Z,3.90
2019-04-01T03:32:14.184Z,3.90
2019-04-01T03:36:19.089Z,3.93
2019-04-01T03:40:23.986Z,3.98
2019-04-01T03:44:28.886Z,4.03
2019-04-01T03:48:33.782Z,3.81
2019-04-01T03:52:38.660Z,3.57
2019-04-01T03:56:43.632Z,3.53
2019-04-01T04:00:48.536Z,3.63
2019-04-01T04:04:53.427Z,3.67
2019-04-01T04:09:02.045Z,3.58
2019-04-01T04:13:04.997Z,3.52
2019-04-01T04:17:09.882Z,3.47
2019-04-01T04:21:14.780Z,3.48
2019-04-01T04:25:19.682Z,3.34
2019-04-01T04:29:24.586Z,3.23
2019-04-01T04:33:29.477Z,3.17
2019-04-01T04:37:34.365Z,2.97
2019-04-01T04:41:39.275Z,2.90
2019-04-01T04:45:44.165Z,2.89
2019-04-01T04:49:49.066Z,2.85
2019-04-01T04:53:53.950Z,2.84
2019-04-01T04:57:58.844Z,2.86
2019-04-01T05:02:03.745Z,2.90
2019-04-01T05:06:08.639Z,2.89
2019-04-01T05:10:13.535Z,2.89
2019-04-01T05:14:18.423Z,2.89
2019-04-01T05:18:23.327Z,2.76
2019-04-01T05:22:29.365Z,2.77
2019-04-01T05:26:36.201Z,2.75
2019-04-01T05:30:41.276Z,2.94
2019-04-01T05:34:46.534Z,2.90
2019-04-01T05:38:51.433Z,2.83
2019-04-01T05:42:56.395Z,2.87
2019-04-01T05:47:01.294Z,3.12
2019-04-01T05:51:06.194Z,3.32
2019-04-01T05:55:11.146Z,3.46
2019-04-01T05:59:16.917Z,3.48
2019-04-01T06:03:21.816Z,3.68
2019-04-01T06:07:27.181Z,3.90
2019-04-01T06:11:32.448Z,4.04
2019-04-01T06:15:38.187Z,4.32
2019-04-01T06:19:43.072Z,4.53
2019-04-01T06:23:47.967Z,4.82
2019-04-01T06:27:52.932Z,5.11
2019-04-01T06:31:58.380Z,5.23
2019-04-01T06:36:03.294Z,5.22
2019-04-01T06:40:08.822Z,7.96
2019-04-01T06:44:13.730Z,10.83
2019-04-01T06:48:18.632Z,12.69
2019-04-01T06:52:23.536Z,13.03
2019-04-01T06:56:28.448Z,13.07
2019-04-01T07:00:33.347Z,12.32
2019-04-01T07:04:38.239Z,10.55
2019-04-01T07:08:43.137Z,8.87
2019-04-01T07:12:48.099Z,8.29
2019-04-01T07:16:53.077Z,7.95
2019-04-01T07:20:57.950Z,7.54
2019-04-01T07:25:03.114Z,7.40
2019-04-01T07:29:08.006Z,7.37
2019-04-01T07:33:12.972Z,7.27
2019-04-01T07:37:17.868Z,7.17
2019-04-01T07:41:22.740Z,7.27
2019-04-01T07:45:28.110Z,7.45
2019-04-01T07:49:33.098Z,7.60
2019-04-01T07:53:37.975Z,7.60
2019-04-01T07:57:42.869Z,7.73
2019-04-01T08:01:48.027Z,7.89
2019-04-01T08:05:52.934Z,8.08
2019-04-01T08:09:57.834Z,8.15
2019-04-01T08:14:03.605Z,8.31
2019-04-01T08:18:08.487Z,8.46
2019-04-01T08:22:13.417Z,8.61
2019-04-01T08:26:18.319Z,8.73
2019-04-01T08:30:23.216Z,8.88
2019-04-01T08:34:28.181Z,9.18
2019-04-01T08:38:33.075Z,9.36
2019-04-01T08:42:38.028Z,9.47
2019-04-01T08:46:43.004Z,9.45
2019-04-01T08:50:47.901Z,9.65
2019-04-01T08:54:52.793Z,9.86
2019-04-01T08:58:57.694Z,9.83
2019-04-01T09:03:02.588Z,9.97
2019-04-01T09:07:07.499Z,10.25
2019-04-01T09:11:12.663Z,10.36
2019-04-01T09:15:17.636Z,10.44
2019-04-01T09:19:22.538Z,10.58
2019-04-01T09:23:28.271Z,10.86
2019-04-01T09:27:33.183Z,10.90
2019-04-01T09:31:38.084Z,11.02
2019-04-01T09:35:42.994Z,11.18
2019-04-01T09:39:47.895Z,11.17
2019-04-01T09:43:52.804Z,11.38
2019-04-01T09:47:57.695Z,11.56
2019-04-01T09:52:03.999Z,11.70
2019-04-01T09:56:10.189Z,11.71
2019-04-01T10:00:15.632Z,11.66
2019-04-01T10:04:20.522Z,11.69
2019-04-01T10:08:25.437Z,11.91
2019-04-01T10:12:30.344Z,11.97
2019-04-01T10:16:35.249Z,12.10
2019-04-01T10:20:40.165Z,12.16
2019-04-01T10:24:46.039Z,12.19
2019-04-01T10:28:50.950Z,12.09
2019-04-01T10:32:55.852Z,12.16
2019-04-01T10:37:00.763Z,12.07
2019-04-01T10:41:06.634Z,12.15
2019-04-01T10:45:11.893Z,12.22
2019-04-01T10:49:16.894Z,12.18
2019-04-01T10:53:21.792Z,12.23
2019-04-01T10:57:26.734Z,12.33
2019-04-01T11:01:31.707Z,12.58
2019-04-01T11:05:36.551Z,12.75
2019-04-01T11:09:41.501Z,12.94
2019-04-01T11:13:46.403Z,13.01
2019-04-01T11:17:52.439Z,13.06
2019-04-01T11:21:57.702Z,13.21
2019-04-01T11:26:02.614Z,13.30
2019-04-01T11:30:08.490Z,13.34
2019-04-01T11:34:14.419Z,13.29
2019-04-01T11:38:19.329Z,13.35
2019-04-01T11:42:24.233Z,13.49
2019-04-01T11:46:29.176Z,13.68
2019-04-01T11:50:34.175Z,13.76
2019-04-01T11:54:39.026Z,13.95
2019-04-01T11:58:43.945Z,13.93
2019-04-01T12:02:48.857Z,14.07
2019-04-01T12:06:53.775Z,14.23
2019-04-01T12:10:59.658Z,14.32
2019-04-01T12:15:05.917Z,14.44
2019-04-01T12:19:10.833Z,14.50
2019-04-01T12:23:15.743Z,14.62
2019-04-01T12:27:20.657Z,14.73
2019-04-01T12:31:25.564Z,14.94
2019-04-01T12:35:30.472Z,15.02
2019-04-01T12:39:35.391Z,15.13
2019-04-01T12:43:40.311Z,15.28
2019-04-01T12:47:45.237Z,15.51
2019-04-01T12:51:50.195Z,15.47
2019-04-01T12:55:55.131Z,15.47
2019-04-01T13:00:00.044Z,15.47
2019-04-01T13:04:05.030Z,15.58
2019-04-01T13:08:09.944Z,15.65
2019-04-01T13:12:14.850Z,15.65
2019-04-01T13:16:19.766Z,15.78
2019-04-01T13:20:37.191Z,15.89
2019-04-01T13:24:31.286Z,15.76
2019-04-01T13:28:36.225Z,15.86
2019-04-01T13:32:41.115Z,16.02
2019-04-01T13:36:46.017Z,16.08
2019-04-01T13:40:50.938Z,16.16
2019-04-01T13:44:55.853Z,16.40
2019-04-01T13:49:04.228Z,16.53
2019-04-01T13:53:07.390Z,16.38
2019-04-01T13:57:13.091Z,16.33
2019-04-01T14:01:18.486Z,16.45
2019-04-01T14:05:24.962Z,16.36
2019-04-01T14:09:30.924Z,16.42
2019-04-01T14:13:35.899Z,16.41
2019-04-01T14:17:40.802Z,16.58
2019-04-01T14:21:45.737Z,16.60
2019-04-01T14:25:50.665Z,16.48
2019-04-01T14:29:55.584Z,16.47
2019-04-01T14:34:01.274Z,16.38
2019-04-01T14:38:06.279Z,16.16
2019-04-01T14:42:11.193Z,16.29
2019-04-01T14:46:16.108Z,16.46
2019-04-01T14:50:21.014Z,16.35
2019-04-01T14:54:25.934Z,16.22
2019-04-01T14:58:30.846Z,16.30
2019-04-01T15:02:35.752Z,16.47
2019-04-01T15:06:40.667Z,16.65
2019-04-01T15:10:45.579Z,16.39
2019-04-01T15:14:50.502Z,16.09
2019-04-01T15:18:55.412Z,16.08
2019-04-01T15:23:00.335Z,16.24
2019-04-01T15:27:05.259Z,16.38
2019-04-01T15:31:10.177Z,16.31
2019-04-01T15:35:15.084Z,16.32
2019-04-01T15:39:20.300Z,16.27
2019-04-01T15:43:25.177Z,16.30
2019-04-01T15:47:30.093Z,16.31
2019-04-01T15:51:35.012Z,16.34
2019-04-01T15:55:40.039Z,16.41
2019-04-01T15:59:44.953Z,16.30
2019-04-01T16:03:49.864Z,16.25
2019-04-01T16:07:54.781Z,16.18
2019-04-01T16:11:59.696Z,15.99
2019-04-01T16:16:04.718Z,15.86
2019-04-01T16:20:09.860Z,15.80
2019-04-01T16:24:15.333Z,15.71
2019-04-01T16:28:21.168Z,15.65
2019-04-01T16:32:26.084Z,15.63
2019-04-01T16:36:31.001Z,15.57
2019-04-01T16:40:35.976Z,15.47
2019-04-01T16:44:40.889Z,15.35
2019-04-01T16:48:46.588Z,15.19
2019-04-01T16:52:51.593Z,15.19
2019-04-01T16:56:56.512Z,15.19
2019-04-01T17:01:02.616Z,14.99
2019-04-01T17:05:08.149Z,14.85
2019-04-01T17:09:13.124Z,14.77
2019-04-01T17:13:18.048Z,14.62
2019-04-01T17:17:23.399Z,14.51
2019-04-01T17:21:28.305Z,14.41
2019-04-01T17:25:33.211Z,14.31
2019-04-01T17:29:40.427Z,14.19
2019-04-01T17:33:45.334Z,14.07
2019-04-01T17:37:50.246Z,13.99
2019-04-01T17:41:55.204Z,13.87
2019-04-01T17:46:00.281Z,13.74
2019-04-01T17:50:06.825Z,13.60
2019-04-01T17:54:11.729Z,13.47
2019-04-01T17:58:16.635Z,13.32
2019-04-01T18:02:29.709Z,13.16
2019-04-01T18:06:34.606Z,12.98
2019-04-01T18:10:39.510Z,12.82
2019-04-01T18:14:44.417Z,12.70
2019-04-01T18:18:49.324Z,12.59
2019-04-01T18:22:54.234Z,12.47
2019-04-01T18:26:59.135Z,12.35
2019-04-01T18:31:04.360Z,12.20
2019-04-01T18:35:09.692Z,12.09
2019-04-01T18:39:15.309Z,11.95
2019-04-01T18:43:20.487Z,11.89
2019-04-01T18:47:25.541Z,11.82
2019-04-01T18:51:30.451Z,11.75
2019-04-01T18:55:35.368Z,11.67
2019-04-01T18:59:40.270Z,11.59
2019-04-01T19:03:45.173Z,11.55
2019-04-01T19:07:50.071Z,11.50
2019-04-01T19:12:03.753Z,11.43
2019-04-01T19:16:05.845Z,11.38
2019-04-01T19:20:11.787Z,11.33
2019-04-01T19:24:16.747Z,11.28
2019-04-01T19:28:21.630Z,11.24
2019-04-01T19:32:27.383Z,11.17
2019-04-01T19:36:32.437Z,11.06
2019-04-01T19:40:37.341Z,11.00
2019-04-01T19:44:43.199Z,10.92
2019-04-01T19:48:48.418Z,10.84
2019-04-01T19:52:55.292Z,10.65
2019-04-01T19:56:59.935Z,10.61
2019-04-01T20:01:04.913Z,10.46
2019-04-01T20:05:10.061Z,10.38
2019-04-01T20:09:14.968Z,10.19
2019-04-01T20:13:19.861Z,10.06
2019-04-01T20:17:24.763Z,10.00
2019-04-01T20:21:29.660Z,9.99
2019-04-01T20:25:34.631Z,9.90
2019-04-01T20:29:40.302Z,9.76
2019-04-01T20:33:45.514Z,9.55
2019-04-01T20:37:50.405Z,9.27
2019-04-01T20:41:55.304Z,9.03
2019-04-01T20:46:00.201Z,8.92
2019-04-01T20:50:10.117Z,8.92
2019-04-01T20:54:16.013Z,8.84
2019-04-01T20:58:22.066Z,8.57
2019-04-01T21:02:26.967Z,8.50
2019-04-01T21:06:31.870Z,8.48
2019-04-01T21:10:36.765Z,8.21
2019-04-01T21:14:41.654Z,8.10
2019-04-01T21:18:47.987Z,7.95
2019-04-01T21:22:53.144Z,7.85
2019-04-01T21:26:58.045Z,7.67
2019-04-01T21:31:02.932Z,7.45
2019-04-01T21:35:09.007Z,7.45
2019-04-01T21:39:14.354Z,7.33
2019-04-01T21:43:20.314Z,7.33
2019-04-01T21:47:25.624Z,7.31
2019-04-01T21:51:33.064Z,7.30
2019-04-01T21:55:37.953Z,7.18
2019-04-01T21:59:42.848Z,7.05
2019-04-01T22:03:47.750Z,7.14
2019-04-01T22:07:52.650Z,7.08
2019-04-01T22:11:58.145Z,7.07
2019-04-01T22:16:03.313Z,6.96
2019-04-01T22:20:08.272Z,6.92
2019-04-01T22:24:13.184Z,6.88
2019-04-01T22:28:18.063Z,6.73
2019-04-01T22:32:22.976Z,6.64
2019-04-01T22:36:31.213Z,6.69
2019-04-01T22:40:34.516Z,6.81
2019-04-01T22:44:39.430Z,6.94
2019-04-01T22:48:44.326Z,7.05
2019-04-01T22:52:49.227Z,7.04
2019-04-01T22:56:54.111Z,7.12
2019-04-01T23:01:00.079Z,7.08
2019-04-01T23:05:06.210Z,7.08
2019-04-01T23:09:11.109Z,7.08
2019-04-01T23:13:16.078Z,7.07
2019-04-01T23:17:20.966Z,7.08
2019-04-01T23:21:25.869Z,7.00
2019-04-01T23:25:30.758Z,6.95
2019-04-01T23:29:35.667Z,6.92
2019-04-01T23:33:40.544Z,6.91
2019-04-01T23:37:45.429Z,6.89
2019-04-01T23:41:50.328Z,6.83
2019-04-01T23:45:55.232Z,6.82
2019-04-01T23:50:00.125Z,6.79
2019-04-01T23:54:05.021Z,6.76
2019-04-01T23:58:09.904Z,6.58
